Terminal Aerodrome Forecast
Issued by NWS Sterling, VA

Current Version | Previous Version | Graphics & Text | Print | Product List | Glossary On
Versions: 1 2 3 4 5 6 7 8 9 10 11 12 13 14 15 16 17 18 19 20 21 22 23
000
FTUS41 KLWX 221100
TAFIAD
TAF
KIAD 221136Z 2212/2318 00000KT P6SM SCT050 BKN180 BKN250
     FM221400 VRB03KT P6SM BKN035
     FM222000 00000KT P6SM VCTS SCT030CB BKN060
     FM222300 00000KT P6SM SCT030 OVC100
     FM231000 08006KT 5SM BR OVC015
     FM231400 09008KT P6SM BKN025=

USA.gov is the U.S. government's official web portal to all federal, state and local government web resources and services.